KAKQ/AKQ METAR and TAF weather

Enter ICAO airport designator
Station Type Date Time Source
KAKQ METAR 2021/01/17 17:54 UTC NOAA

KAKQ 171754Z AUTO 27008KT 230V320 10SM CLR 09/M01 A2984 RMK AO2 SLP105 T00941011 10094 21011 58017


Station Type Date Time Source
KAKQ Decoded METAR 2021/01/17 17:54 UTC NOAA

WAKEFIELD MUNICIPAL AIRPOR, VA, United States (KAKQ) 36-59N 077-00W 33M
Jan 17, 2021 - 12:54 PM EST / 2021.01.17 1754 UTC
Wind: from the W (270 degrees) at 9 MPH (8 KT) (direction variable):0
Visibility: 10 mile(s):0
Sky conditions: clear
Temperature: 48.9 F (9.4 C)
Dew Point: 30.0 F (-1.1 C)
Relative Humidity: 47%
Pressure (altimeter): 29.84 in. Hg (1010 hPa)
Pressure tendency: 0.05 inches (1.7 hPa) lower than three hours ago
ob: KAKQ 171754Z AUTO 27008KT 230V320 10SM CLR 09/M01 A2984 RMK AO2 SLP105 T00941011 10094 21011 58017
cycle: 18

Station Type Date Time Source
KAKQ TAF UTC NOAA

Error!

Example: see airport list